sensor_id;sensor_type;location;lat;lon;timestamp;P1;durP1;ratioP1;P2;durP2;ratioP2
75932;SDS011;64803;52.356;5.310;2023-05-07T00:00:54;38.70;;;21.58;;
75932;SDS011;64803;52.356;5.310;2023-05-07T00:03:21;41.83;;;20.65;;
75932;SDS011;64803;52.356;5.310;2023-05-07T00:05:47;35.67;;;19.70;;
75932;SDS011;64803;52.356;5.310;2023-05-07T00:08:13;33.45;;;17.38;;
75932;SDS011;64803;52.356;5.310;2023-05-07T00:10:39;33.08;;;17.50;;
75932;SDS011;64803;52.356;5.310;2023-05-07T00:13:05;31.90;;;15.98;;
75932;SDS011;64803;52.356;5.310;2023-05-07T00:15:31;32.80;;;17.13;;
75932;SDS011;64803;52.356;5.310;2023-05-07T00:17:57;33.67;;;17.27;;
75932;SDS011;64803;52.356;5.310;2023-05-07T00:20:25;30.85;;;16.55;;
75932;SDS011;64803;52.356;5.310;2023-05-07T00:22:51;34.88;;;17.70;;
75932;SDS011;64803;52.356;5.310;2023-05-07T00:25:17;31.20;;;17.08;;
75932;SDS011;64803;52.356;5.310;2023-05-07T00:27:45;28.27;;;16.65;;
75932;SDS011;64803;52.356;5.310;2023-05-07T00:30:11;25.30;;;15.25;;
75932;SDS011;64803;52.356;5.310;2023-05-07T00:32:37;27.25;;;15.10;;
75932;SDS011;64803;52.356;5.310;2023-05-07T00:35:04;27.65;;;14.27;;
75932;SDS011;64803;52.356;5.310;2023-05-07T00:37:31;21.95;;;13.60;;
75932;SDS011;64803;52.356;5.310;2023-05-07T00:39:57;23.75;;;12.70;;
75932;SDS011;64803;52.356;5.310;2023-05-07T00:42:23;23.75;;;12.65;;
75932;SDS011;64803;52.356;5.310;2023-05-07T00:44:49;28.00;;;12.25;;
75932;SDS011;64803;52.356;5.310;2023-05-07T00:47:16;23.77;;;12.52;;
75932;SDS011;64803;52.356;5.310;2023-05-07T00:49:43;20.90;;;12.38;;
75932;SDS011;64803;52.356;5.310;2023-05-07T00:52:11;23.65;;;12.80;;
75932;SDS011;64803;52.356;5.310;2023-05-07T00:54:41;24.85;;;12.50;;
75932;SDS011;64803;52.356;5.310;2023-05-07T00:57:08;24.40;;;12.77;;
75932;SDS011;64803;52.356;5.310;2023-05-07T00:59:37;21.38;;;11.55;;
75932;SDS011;64803;52.356;5.310;2023-05-07T01:02:03;20.38;;;12.18;;
75932;SDS011;64803;52.356;5.310;2023-05-07T01:04:29;20.73;;;12.00;;
75932;SDS011;64803;52.356;5.310;2023-05-07T01:06:56;20.98;;;11.55;;
75932;SDS011;64803;52.356;5.310;2023-05-07T01:09:23;21.58;;;11.52;;
75932;SDS011;64803;52.356;5.310;2023-05-07T01:11:51;22.80;;;11.75;;
75932;SDS011;64803;52.356;5.310;2023-05-07T01:14:19;21.42;;;12.48;;
75932;SDS011;64803;52.356;5.310;2023-05-07T01:16:47;19.88;;;10.98;;
75932;SDS011;64803;52.356;5.310;2023-05-07T01:19:14;22.52;;;12.45;;
75932;SDS011;64803;52.356;5.310;2023-05-07T01:21:45;20.00;;;11.50;;
75932;SDS011;64803;52.356;5.310;2023-05-07T01:24:13;20.20;;;10.13;;
75932;SDS011;64803;52.356;5.310;2023-05-07T01:26:41;16.77;;;11.07;;
75932;SDS011;64803;52.356;5.310;2023-05-07T01:29:09;17.00;;;10.45;;
75932;SDS011;64803;52.356;5.310;2023-05-07T01:31:35;17.95;;;10.52;;
75932;SDS011;64803;52.356;5.310;2023-05-07T01:34:03;18.20;;;10.63;;
75932;SDS011;64803;52.356;5.310;2023-05-07T01:36:30;21.73;;;11.52;;
75932;SDS011;64803;52.356;5.310;2023-05-07T01:38:58;21.05;;;12.32;;
75932;SDS011;64803;52.356;5.310;2023-05-07T01:41:25;23.23;;;11.82;;
75932;SDS011;64803;52.356;5.310;2023-05-07T01:43:52;20.92;;;11.88;;
75932;SDS011;64803;52.356;5.310;2023-05-07T01:48:45;21.40;;;11.30;;
75932;SDS011;64803;52.356;5.310;2023-05-07T01:51:12;21.02;;;11.63;;
75932;SDS011;64803;52.356;5.310;2023-05-07T01:53:39;20.50;;;10.85;;
75932;SDS011;64803;52.356;5.310;2023-05-07T01:56:06;22.05;;;10.75;;
75932;SDS011;64803;52.356;5.310;2023-05-07T01:58:34;17.27;;;10.93;;
75932;SDS011;64803;52.356;5.310;2023-05-07T02:01:01;20.27;;;11.20;;
75932;SDS011;64803;52.356;5.310;2023-05-07T02:03:27;18.27;;;10.20;;
75932;SDS011;64803;52.356;5.310;2023-05-07T02:06:01;19.27;;;11.40;;
75932;SDS011;64803;52.356;5.310;2023-05-07T02:08:38;19.00;;;10.55;;
75932;SDS011;64803;52.356;5.310;2023-05-07T02:11:05;20.08;;;10.55;;
75932;SDS011;64803;52.356;5.310;2023-05-07T02:13:32;20.70;;;10.82;;
75932;SDS011;64803;52.356;5.310;2023-05-07T02:16:00;20.00;;;10.80;;
75932;SDS011;64803;52.356;5.310;2023-05-07T02:18:27;19.73;;;10.68;;
75932;SDS011;64803;52.356;5.310;2023-05-07T02:20:53;16.27;;;9.93;;
75932;SDS011;64803;52.356;5.310;2023-05-07T02:23:20;18.42;;;10.18;;
75932;SDS011;64803;52.356;5.310;2023-05-07T02:25:46;16.77;;;9.80;;
75932;SDS011;64803;52.356;5.310;2023-05-07T02:28:12;15.50;;;8.98;;
75932;SDS011;64803;52.356;5.310;2023-05-07T02:30:58;17.98;;;8.95;;
75932;SDS011;64803;52.356;5.310;2023-05-07T02:33:26;20.65;;;9.60;;
75932;SDS011;64803;52.356;5.310;2023-05-07T02:35:53;17.38;;;9.40;;
75932;SDS011;64803;52.356;5.310;2023-05-07T02:38:19;16.67;;;9.93;;
75932;SDS011;64803;52.356;5.310;2023-05-07T02:40:45;16.40;;;9.07;;
75932;SDS011;64803;52.356;5.310;2023-05-07T02:43:11;19.23;;;8.82;;
75932;SDS011;64803;52.356;5.310;2023-05-07T02:45:41;20.95;;;9.75;;
75932;SDS011;64803;52.356;5.310;2023-05-07T02:50:34;19.15;;;10.45;;
75932;SDS011;64803;52.356;5.310;2023-05-07T02:53:00;19.38;;;10.93;;
75932;SDS011;64803;52.356;5.310;2023-05-07T02:55:27;20.50;;;11.05;;
75932;SDS011;64803;52.356;5.310;2023-05-07T02:57:53;21.30;;;11.27;;
75932;SDS011;64803;52.356;5.310;2023-05-07T03:00:19;23.30;;;11.10;;
75932;SDS011;64803;52.356;5.310;2023-05-07T03:03:08;22.75;;;11.63;;
75932;SDS011;64803;52.356;5.310;2023-05-07T03:05:34;22.80;;;12.05;;
75932;SDS011;64803;52.356;5.310;2023-05-07T03:08:00;20.08;;;10.68;;
75932;SDS011;64803;52.356;5.310;2023-05-07T03:10:26;24.38;;;10.82;;
75932;SDS011;64803;52.356;5.310;2023-05-07T03:12:52;21.05;;;11.70;;
75932;SDS011;64803;52.356;5.310;2023-05-07T03:15:18;19.85;;;10.93;;
75932;SDS011;64803;52.356;5.310;2023-05-07T03:17:44;16.42;;;9.88;;
75932;SDS011;64803;52.356;5.310;2023-05-07T03:20:11;20.33;;;11.18;;
75932;SDS011;64803;52.356;5.310;2023-05-07T03:22:37;19.85;;;11.43;;
75932;SDS011;64803;52.356;5.310;2023-05-07T03:25:03;17.27;;;9.35;;
75932;SDS011;64803;52.356;5.310;2023-05-07T03:27:30;19.08;;;10.57;;
75932;SDS011;64803;52.356;5.310;2023-05-07T03:29:56;19.10;;;11.30;;
75932;SDS011;64803;52.356;5.310;2023-05-07T03:32:22;20.90;;;11.13;;
75932;SDS011;64803;52.356;5.310;2023-05-07T03:34:48;20.02;;;11.18;;
75932;SDS011;64803;52.356;5.310;2023-05-07T03:37:14;21.38;;;11.65;;
75932;SDS011;64803;52.356;5.310;2023-05-07T03:39:41;20.75;;;12.32;;
75932;SDS011;64803;52.356;5.310;2023-05-07T03:42:07;22.48;;;11.35;;
75932;SDS011;64803;52.356;5.310;2023-05-07T03:44:33;22.90;;;12.45;;
75932;SDS011;64803;52.356;5.310;2023-05-07T03:46:59;22.55;;;12.35;;
75932;SDS011;64803;52.356;5.310;2023-05-07T03:49:25;22.05;;;12.10;;
75932;SDS011;64803;52.356;5.310;2023-05-07T03:51:51;21.40;;;12.30;;
75932;SDS011;64803;52.356;5.310;2023-05-07T03:54:18;24.67;;;13.05;;
75932;SDS011;64803;52.356;5.310;2023-05-07T03:56:46;23.95;;;12.48;;
75932;SDS011;64803;52.356;5.310;2023-05-07T03:59:12;24.10;;;12.27;;
75932;SDS011;64803;52.356;5.310;2023-05-07T04:01:39;23.40;;;11.80;;
75932;SDS011;64803;52.356;5.310;2023-05-07T04:04:06;24.00;;;12.13;;
75932;SDS011;64803;52.356;5.310;2023-05-07T04:06:34;23.00;;;12.30;;
75932;SDS011;64803;52.356;5.310;2023-05-07T04:09:00;28.65;;;13.02;;
75932;SDS011;64803;52.356;5.310;2023-05-07T04:11:26;26.65;;;12.25;;
75932;SDS011;64803;52.356;5.310;2023-05-07T04:13:52;25.05;;;14.18;;
75932;SDS011;64803;52.356;5.310;2023-05-07T04:16:22;28.38;;;15.00;;
75932;SDS011;64803;52.356;5.310;2023-05-07T04:18:48;34.35;;;16.67;;
75932;SDS011;64803;52.356;5.310;2023-05-07T04:21:17;29.35;;;16.63;;
75932;SDS011;64803;52.356;5.310;2023-05-07T04:23:47;32.17;;;16.10;;
75932;SDS011;64803;52.356;5.310;2023-05-07T04:26:13;29.20;;;15.80;;
75932;SDS011;64803;52.356;5.310;2023-05-07T04:28:42;27.65;;;16.25;;
75932;SDS011;64803;52.356;5.310;2023-05-07T04:31:09;32.38;;;17.10;;
75932;SDS011;64803;52.356;5.310;2023-05-07T04:33:36;33.00;;;16.08;;
75932;SDS011;64803;52.356;5.310;2023-05-07T04:38:34;27.45;;;15.38;;
75932;SDS011;64803;52.356;5.310;2023-05-07T04:41:05;28.63;;;14.85;;
75932;SDS011;64803;52.356;5.310;2023-05-07T04:43:35;29.45;;;15.27;;
75932;SDS011;64803;52.356;5.310;2023-05-07T04:46:01;31.55;;;15.65;;
75932;SDS011;64803;52.356;5.310;2023-05-07T04:48:28;27.35;;;15.05;;
75932;SDS011;64803;52.356;5.310;2023-05-07T04:50:55;27.83;;;15.50;;
75932;SDS011;64803;52.356;5.310;2023-05-07T04:53:21;32.45;;;15.43;;
75932;SDS011;64803;52.356;5.310;2023-05-07T04:55:54;29.17;;;15.77;;
75932;SDS011;64803;52.356;5.310;2023-05-07T04:58:21;33.38;;;16.52;;
75932;SDS011;64803;52.356;5.310;2023-05-07T05:00:47;33.70;;;16.55;;
75932;SDS011;64803;52.356;5.310;2023-05-07T05:03:13;34.22;;;17.92;;
75932;SDS011;64803;52.356;5.310;2023-05-07T05:05:39;34.67;;;17.10;;
75932;SDS011;64803;52.356;5.310;2023-05-07T05:08:05;33.45;;;17.85;;
75932;SDS011;64803;52.356;5.310;2023-05-07T05:10:35;34.85;;;17.35;;
75932;SDS011;64803;52.356;5.310;2023-05-07T05:13:01;29.88;;;16.15;;
75932;SDS011;64803;52.356;5.310;2023-05-07T05:15:27;31.52;;;16.85;;
75932;SDS011;64803;52.356;5.310;2023-05-07T05:17:53;32.92;;;18.00;;
75932;SDS011;64803;52.356;5.310;2023-05-07T05:20:19;36.42;;;19.30;;
75932;SDS011;64803;52.356;5.310;2023-05-07T05:22:46;34.67;;;18.73;;
75932;SDS011;64803;52.356;5.310;2023-05-07T05:25:13;38.28;;;19.95;;
75932;SDS011;64803;52.356;5.310;2023-05-07T05:27:39;39.30;;;20.75;;
75932;SDS011;64803;52.356;5.310;2023-05-07T05:30:05;39.00;;;19.98;;
75932;SDS011;64803;52.356;5.310;2023-05-07T05:32:32;38.50;;;20.27;;
75932;SDS011;64803;52.356;5.310;2023-05-07T05:34:59;38.65;;;20.90;;
75932;SDS011;64803;52.356;5.310;2023-05-07T05:37:25;39.53;;;21.50;;
75932;SDS011;64803;52.356;5.310;2023-05-07T05:39:52;40.70;;;22.27;;
75932;SDS011;64803;52.356;5.310;2023-05-07T05:42:20;46.63;;;22.75;;
75932;SDS011;64803;52.356;5.310;2023-05-07T05:44:46;41.15;;;23.33;;
75932;SDS011;64803;52.356;5.310;2023-05-07T05:47:13;43.00;;;22.85;;
75932;SDS011;64803;52.356;5.310;2023-05-07T05:49:40;46.13;;;24.27;;
75932;SDS011;64803;52.356;5.310;2023-05-07T05:52:07;44.08;;;24.60;;
75932;SDS011;64803;52.356;5.310;2023-05-07T05:54:33;48.28;;;25.15;;
75932;SDS011;64803;52.356;5.310;2023-05-07T05:56:59;47.15;;;24.80;;
75932;SDS011;64803;52.356;5.310;2023-05-07T05:59:25;47.45;;;25.63;;
75932;SDS011;64803;52.356;5.310;2023-05-07T06:01:52;46.67;;;25.65;;
75932;SDS011;64803;52.356;5.310;2023-05-07T06:04:19;45.53;;;24.95;;
75932;SDS011;64803;52.356;5.310;2023-05-07T06:06:45;46.35;;;25.13;;
75932;SDS011;64803;52.356;5.310;2023-05-07T06:09:11;45.50;;;23.30;;
75932;SDS011;64803;52.356;5.310;2023-05-07T06:11:42;38.60;;;22.63;;
75932;SDS011;64803;52.356;5.310;2023-05-07T06:16:35;39.42;;;21.13;;
75932;SDS011;64803;52.356;5.310;2023-05-07T06:19:04;35.55;;;20.02;;
75932;SDS011;64803;52.356;5.310;2023-05-07T06:21:30;41.97;;;22.23;;
75932;SDS011;64803;52.356;5.310;2023-05-07T06:23:57;43.63;;;24.55;;
75932;SDS011;64803;52.356;5.310;2023-05-07T06:26:23;39.85;;;23.10;;
75932;SDS011;64803;52.356;5.310;2023-05-07T06:28:49;38.33;;;20.95;;
75932;SDS011;64803;52.356;5.310;2023-05-07T06:31:17;42.13;;;23.88;;
75932;SDS011;64803;52.356;5.310;2023-05-07T06:33:51;39.88;;;22.63;;
75932;SDS011;64803;52.356;5.310;2023-05-07T06:36:18;38.70;;;22.75;;
75932;SDS011;64803;52.356;5.310;2023-05-07T06:38:45;37.28;;;21.73;;
75932;SDS011;64803;52.356;5.310;2023-05-07T06:41:11;44.95;;;26.08;;
75932;SDS011;64803;52.356;5.310;2023-05-07T06:43:38;43.92;;;23.52;;
75932;SDS011;64803;52.356;5.310;2023-05-07T06:46:30;40.60;;;23.17;;
75932;SDS011;64803;52.356;5.310;2023-05-07T06:48:56;43.58;;;23.35;;
75932;SDS011;64803;52.356;5.310;2023-05-07T06:51:23;37.38;;;23.15;;
75932;SDS011;64803;52.356;5.310;2023-05-07T06:53:49;40.47;;;23.88;;
75932;SDS011;64803;52.356;5.310;2023-05-07T06:56:15;39.15;;;21.23;;
75932;SDS011;64803;52.356;5.310;2023-05-07T06:58:41;35.95;;;22.10;;
75932;SDS011;64803;52.356;5.310;2023-05-07T07:01:08;36.53;;;21.33;;
75932;SDS011;64803;52.356;5.310;2023-05-07T07:03:36;38.28;;;21.02;;
75932;SDS011;64803;52.356;5.310;2023-05-07T07:06:02;34.53;;;20.08;;
75932;SDS011;64803;52.356;5.310;2023-05-07T07:08:29;38.83;;;22.08;;
75932;SDS011;64803;52.356;5.310;2023-05-07T07:10:55;35.60;;;21.23;;
75932;SDS011;64803;52.356;5.310;2023-05-07T07:13:21;38.25;;;22.20;;
75932;SDS011;64803;52.356;5.310;2023-05-07T07:15:47;33.40;;;20.48;;
75932;SDS011;64803;52.356;5.310;2023-05-07T07:18:13;29.88;;;19.42;;
75932;SDS011;64803;52.356;5.310;2023-05-07T07:20:40;36.42;;;19.20;;
75932;SDS011;64803;52.356;5.310;2023-05-07T07:25:33;31.88;;;18.10;;
75932;SDS011;64803;52.356;5.310;2023-05-07T07:27:59;31.23;;;18.67;;
75932;SDS011;64803;52.356;5.310;2023-05-07T07:30:26;32.75;;;19.73;;
75932;SDS011;64803;52.356;5.310;2023-05-07T07:32:54;32.53;;;18.80;;
75932;SDS011;64803;52.356;5.310;2023-05-07T07:35:22;32.88;;;18.73;;
75932;SDS011;64803;52.356;5.310;2023-05-07T07:37:48;32.33;;;18.73;;
75932;SDS011;64803;52.356;5.310;2023-05-07T07:40:16;33.00;;;18.73;;
75932;SDS011;64803;52.356;5.310;2023-05-07T07:42:43;29.77;;;18.05;;
75932;SDS011;64803;52.356;5.310;2023-05-07T07:45:09;27.38;;;17.90;;
75932;SDS011;64803;52.356;5.310;2023-05-07T07:47:40;27.23;;;17.08;;
75932;SDS011;64803;52.356;5.310;2023-05-07T07:50:06;31.55;;;18.00;;
75932;SDS011;64803;52.356;5.310;2023-05-07T07:52:33;31.17;;;18.38;;
75932;SDS011;64803;52.356;5.310;2023-05-07T07:54:59;27.88;;;16.38;;
75932;SDS011;64803;52.356;5.310;2023-05-07T07:57:26;29.77;;;18.15;;
75932;SDS011;64803;52.356;5.310;2023-05-07T07:59:52;28.23;;;17.98;;
75932;SDS011;64803;52.356;5.310;2023-05-07T08:02:19;33.20;;;17.52;;
75932;SDS011;64803;52.356;5.310;2023-05-07T08:04:46;27.65;;;17.10;;
75932;SDS011;64803;52.356;5.310;2023-05-07T08:07:12;27.20;;;16.35;;
75932;SDS011;64803;52.356;5.310;2023-05-07T08:09:41;28.83;;;17.17;;
75932;SDS011;64803;52.356;5.310;2023-05-07T08:12:08;27.45;;;17.27;;
75932;SDS011;64803;52.356;5.310;2023-05-07T08:14:35;25.08;;;15.05;;
75932;SDS011;64803;52.356;5.310;2023-05-07T08:17:04;28.05;;;17.05;;
75932;SDS011;64803;52.356;5.310;2023-05-07T08:19:30;25.48;;;15.73;;
75932;SDS011;64803;52.356;5.310;2023-05-07T08:21:57;24.23;;;16.67;;
75932;SDS011;64803;52.356;5.310;2023-05-07T08:24:25;29.75;;;17.50;;
75932;SDS011;64803;52.356;5.310;2023-05-07T08:26:51;25.77;;;15.32;;
75932;SDS011;64803;52.356;5.310;2023-05-07T08:29:17;29.25;;;16.83;;
75932;SDS011;64803;52.356;5.310;2023-05-07T08:31:44;27.83;;;16.23;;
75932;SDS011;64803;52.356;5.310;2023-05-07T08:34:10;27.60;;;17.08;;
75932;SDS011;64803;52.356;5.310;2023-05-07T08:36:39;27.55;;;16.98;;
75932;SDS011;64803;52.356;5.310;2023-05-07T08:39:08;29.98;;;17.13;;
75932;SDS011;64803;52.356;5.310;2023-05-07T08:41:34;29.52;;;16.50;;
75932;SDS011;64803;52.356;5.310;2023-05-07T08:44:01;26.27;;;16.80;;
75932;SDS011;64803;52.356;5.310;2023-05-07T08:46:31;25.02;;;14.63;;
75932;SDS011;64803;52.356;5.310;2023-05-07T08:48:58;28.85;;;15.93;;
75932;SDS011;64803;52.356;5.310;2023-05-07T08:51:24;26.90;;;16.45;;
75932;SDS011;64803;52.356;5.310;2023-05-07T08:53:52;27.02;;;15.60;;
75932;SDS011;64803;52.356;5.310;2023-05-07T08:56:23;23.65;;;14.43;;
75932;SDS011;64803;52.356;5.310;2023-05-07T08:58:51;27.80;;;15.80;;
75932;SDS011;64803;52.356;5.310;2023-05-07T09:01:22;23.65;;;14.93;;
75932;SDS011;64803;52.356;5.310;2023-05-07T09:03:51;25.17;;;15.02;;
75932;SDS011;64803;52.356;5.310;2023-05-07T09:06:19;26.77;;;15.30;;
75932;SDS011;64803;52.356;5.310;2023-05-07T09:08:49;26.67;;;15.73;;
75932;SDS011;64803;52.356;5.310;2023-05-07T09:11:19;24.10;;;14.98;;
75932;SDS011;64803;52.356;5.310;2023-05-07T09:13:52;23.38;;;14.30;;
75932;SDS011;64803;52.356;5.310;2023-05-07T09:16:20;24.45;;;13.82;;
75932;SDS011;64803;52.356;5.310;2023-05-07T09:18:48;20.10;;;13.65;;
75932;SDS011;64803;52.356;5.310;2023-05-07T09:21:17;21.75;;;13.80;;
75932;SDS011;64803;52.356;5.310;2023-05-07T09:23:47;26.85;;;15.10;;
75932;SDS011;64803;52.356;5.310;2023-05-07T09:26:16;23.75;;;15.07;;
75932;SDS011;64803;52.356;5.310;2023-05-07T09:28:42;20.63;;;13.75;;
75932;SDS011;64803;52.356;5.310;2023-05-07T09:31:10;22.40;;;13.68;;
75932;SDS011;64803;52.356;5.310;2023-05-07T09:33:37;19.83;;;12.60;;
75932;SDS011;64803;52.356;5.310;2023-05-07T09:36:05;19.70;;;13.50;;
75932;SDS011;64803;52.356;5.310;2023-05-07T09:38:34;19.92;;;12.13;;
75932;SDS011;64803;52.356;5.310;2023-05-07T09:41:08;22.63;;;12.25;;
75932;SDS011;64803;52.356;5.310;2023-05-07T09:43:42;17.25;;;11.85;;
75932;SDS011;64803;52.356;5.310;2023-05-07T09:46:14;19.70;;;12.88;;
75932;SDS011;64803;52.356;5.310;2023-05-07T09:48:47;23.10;;;14.52;;
75932;SDS011;64803;52.356;5.310;2023-05-07T09:51:21;23.65;;;13.02;;
75932;SDS011;64803;52.356;5.310;2023-05-07T09:53:52;21.73;;;12.63;;
75932;SDS011;64803;52.356;5.310;2023-05-07T09:56:19;20.40;;;11.60;;
75932;SDS011;64803;52.356;5.310;2023-05-07T09:58:47;17.80;;;11.10;;
75932;SDS011;64803;52.356;5.310;2023-05-07T10:01:15;17.27;;;11.00;;
75932;SDS011;64803;52.356;5.310;2023-05-07T10:03:43;17.70;;;10.30;;
75932;SDS011;64803;52.356;5.310;2023-05-07T10:08:37;17.42;;;8.70;;
75932;SDS011;64803;52.356;5.310;2023-05-07T10:11:05;15.45;;;8.93;;
75932;SDS011;64803;52.356;5.310;2023-05-07T10:13:32;15.07;;;8.95;;
75932;SDS011;64803;52.356;5.310;2023-05-07T10:16:04;15.77;;;9.60;;
75932;SDS011;64803;52.356;5.310;2023-05-07T10:18:36;17.33;;;7.80;;
75932;SDS011;64803;52.356;5.310;2023-05-07T10:21:16;13.68;;;7.40;;
75932;SDS011;64803;52.356;5.310;2023-05-07T10:23:49;15.73;;;8.68;;
75932;SDS011;64803;52.356;5.310;2023-05-07T10:26:17;13.00;;;7.05;;
75932;SDS011;64803;52.356;5.310;2023-05-07T10:28:47;11.45;;;6.72;;
75932;SDS011;64803;52.356;5.310;2023-05-07T10:34:35;13.15;;;6.70;;
75932;SDS011;64803;52.356;5.310;2023-05-07T10:37:04;13.85;;;7.57;;
75932;SDS011;64803;52.356;5.310;2023-05-07T10:39:31;13.23;;;7.60;;
75932;SDS011;64803;52.356;5.310;2023-05-07T10:42:07;13.48;;;6.57;;
75932;SDS011;64803;52.356;5.310;2023-05-07T10:44:34;13.25;;;7.13;;
75932;SDS011;64803;52.356;5.310;2023-05-07T10:47:06;18.40;;;9.43;;
75932;SDS011;64803;52.356;5.310;2023-05-07T10:52:19;13.73;;;7.80;;
75932;SDS011;64803;52.356;5.310;2023-05-07T10:55:27;11.95;;;7.22;;
75932;SDS011;64803;52.356;5.310;2023-05-07T11:01:15;12.70;;;7.13;;
75932;SDS011;64803;52.356;5.310;2023-05-07T11:04:24;14.27;;;7.47;;
75932;SDS011;64803;52.356;5.310;2023-05-07T11:17:55;11.35;;;6.07;;
75932;SDS011;64803;52.356;5.310;2023-05-07T11:26:05;12.05;;;6.32;;
75932;SDS011;64803;52.356;5.310;2023-05-07T11:28:41;10.95;;;5.43;;
75932;SDS011;64803;52.356;5.310;2023-05-07T11:31:10;9.68;;;4.93;;
75932;SDS011;64803;52.356;5.310;2023-05-07T11:33:37;9.10;;;3.67;;
75932;SDS011;64803;52.356;5.310;2023-05-07T11:36:13;8.93;;;3.92;;
75932;SDS011;64803;52.356;5.310;2023-05-07T11:38:45;13.32;;;4.38;;
75932;SDS011;64803;52.356;5.310;2023-05-07T11:41:11;12.35;;;5.13;;
75932;SDS011;64803;52.356;5.310;2023-05-07T11:43:37;11.80;;;6.15;;
75932;SDS011;64803;52.356;5.310;2023-05-07T11:46:09;12.05;;;6.10;;
75932;SDS011;64803;52.356;5.310;2023-05-07T11:48:36;11.60;;;6.25;;
75932;SDS011;64803;52.356;5.310;2023-05-07T11:51:02;11.82;;;6.45;;
75932;SDS011;64803;52.356;5.310;2023-05-07T11:53:37;12.10;;;5.75;;
75932;SDS011;64803;52.356;5.310;2023-05-07T11:56:14;12.45;;;5.57;;
75932;SDS011;64803;52.356;5.310;2023-05-07T11:58:42;8.80;;;5.35;;
75932;SDS011;64803;52.356;5.310;2023-05-07T12:01:09;10.68;;;5.15;;
75932;SDS011;64803;52.356;5.310;2023-05-07T12:03:36;11.52;;;5.40;;
75932;SDS011;64803;52.356;5.310;2023-05-07T12:06:06;14.63;;;7.63;;
75932;SDS011;64803;52.356;5.310;2023-05-07T12:08:32;10.48;;;5.10;;
75932;SDS011;64803;52.356;5.310;2023-05-07T12:10:58;8.88;;;5.18;;
75932;SDS011;64803;52.356;5.310;2023-05-07T12:13:25;12.15;;;6.22;;
75932;SDS011;64803;52.356;5.310;2023-05-07T12:15:52;13.75;;;6.32;;
75932;SDS011;64803;52.356;5.310;2023-05-07T12:18:21;12.35;;;5.80;;
75932;SDS011;64803;52.356;5.310;2023-05-07T12:23:14;11.07;;;5.57;;
75932;SDS011;64803;52.356;5.310;2023-05-07T12:25:42;13.27;;;6.72;;
75932;SDS011;64803;52.356;5.310;2023-05-07T12:28:12;13.65;;;6.35;;
75932;SDS011;64803;52.356;5.310;2023-05-07T12:30:41;11.32;;;5.75;;
75932;SDS011;64803;52.356;5.310;2023-05-07T12:33:08;15.07;;;6.00;;
75932;SDS011;64803;52.356;5.310;2023-05-07T12:35:41;14.23;;;5.85;;
75932;SDS011;64803;52.356;5.310;2023-05-07T12:38:08;11.95;;;4.93;;
75932;SDS011;64803;52.356;5.310;2023-05-07T12:40:39;12.55;;;5.25;;
75932;SDS011;64803;52.356;5.310;2023-05-07T12:43:07;11.15;;;5.75;;
75932;SDS011;64803;52.356;5.310;2023-05-07T12:45:37;9.35;;;5.25;;
75932;SDS011;64803;52.356;5.310;2023-05-07T12:48:04;11.65;;;5.70;;
75932;SDS011;64803;52.356;5.310;2023-05-07T12:50:31;11.02;;;5.13;;
75932;SDS011;64803;52.356;5.310;2023-05-07T12:52:58;12.98;;;4.90;;
75932;SDS011;64803;52.356;5.310;2023-05-07T12:55:24;13.40;;;5.47;;
75932;SDS011;64803;52.356;5.310;2023-05-07T12:57:51;9.48;;;4.53;;
75932;SDS011;64803;52.356;5.310;2023-05-07T13:02:58;8.85;;;2.22;;
75932;SDS011;64803;52.356;5.310;2023-05-07T13:05:24;8.98;;;2.22;;
75932;SDS011;64803;52.356;5.310;2023-05-07T13:07:53;7.93;;;2.13;;
75932;SDS011;64803;52.356;5.310;2023-05-07T13:10:21;6.38;;;2.42;;
75932;SDS011;64803;52.356;5.310;2023-05-07T13:15:13;8.15;;;2.85;;
75932;SDS011;64803;52.356;5.310;2023-05-07T13:17:39;9.00;;;2.80;;
75932;SDS011;64803;52.356;5.310;2023-05-07T13:20:05;6.85;;;3.03;;
75932;SDS011;64803;52.356;5.310;2023-05-07T13:22:33;9.15;;;3.25;;
75932;SDS011;64803;52.356;5.310;2023-05-07T13:24:59;8.20;;;2.42;;
75932;SDS011;64803;52.356;5.310;2023-05-07T13:27:25;8.15;;;2.85;;
75932;SDS011;64803;52.356;5.310;2023-05-07T13:29:51;7.10;;;3.20;;
75932;SDS011;64803;52.356;5.310;2023-05-07T13:32:17;7.18;;;2.88;;
75932;SDS011;64803;52.356;5.310;2023-05-07T13:34:43;9.25;;;2.90;;
75932;SDS011;64803;52.356;5.310;2023-05-07T13:37:09;10.57;;;3.08;;
75932;SDS011;64803;52.356;5.310;2023-05-07T13:39:36;7.50;;;2.67;;
75932;SDS011;64803;52.356;5.310;2023-05-07T13:42:02;9.20;;;3.15;;
75932;SDS011;64803;52.356;5.310;2023-05-07T13:44:28;7.10;;;2.60;;
75932;SDS011;64803;52.356;5.310;2023-05-07T13:46:54;6.55;;;2.42;;
75932;SDS011;64803;52.356;5.310;2023-05-07T13:49:20;8.32;;;2.50;;
75932;SDS011;64803;52.356;5.310;2023-05-07T13:51:46;9.40;;;2.63;;
75932;SDS011;64803;52.356;5.310;2023-05-07T13:54:12;9.65;;;4.10;;
75932;SDS011;64803;52.356;5.310;2023-05-07T13:56:38;9.35;;;2.95;;
75932;SDS011;64803;52.356;5.310;2023-05-07T13:59:05;11.43;;;5.43;;
75932;SDS011;64803;52.356;5.310;2023-05-07T14:01:30;12.15;;;5.20;;
75932;SDS011;64803;52.356;5.310;2023-05-07T14:03:56;11.70;;;5.80;;
75932;SDS011;64803;52.356;5.310;2023-05-07T14:06:23;13.88;;;7.00;;
75932;SDS011;64803;52.356;5.310;2023-05-07T14:08:50;11.85;;;5.38;;
75932;SDS011;64803;52.356;5.310;2023-05-07T14:11:16;13.35;;;6.75;;
75932;SDS011;64803;52.356;5.310;2023-05-07T14:13:42;14.80;;;6.97;;
75932;SDS011;64803;52.356;5.310;2023-05-07T14:16:08;14.13;;;7.63;;
75932;SDS011;64803;52.356;5.310;2023-05-07T14:18:34;13.05;;;7.82;;
75932;SDS011;64803;52.356;5.310;2023-05-07T14:21:01;18.48;;;9.52;;
75932;SDS011;64803;52.356;5.310;2023-05-07T14:23:27;17.13;;;8.18;;
75932;SDS011;64803;52.356;5.310;2023-05-07T14:25:53;14.90;;;7.55;;
75932;SDS011;64803;52.356;5.310;2023-05-07T14:28:19;14.55;;;7.85;;
75932;SDS011;64803;52.356;5.310;2023-05-07T14:30:45;14.77;;;7.20;;
75932;SDS011;64803;52.356;5.310;2023-05-07T14:33:12;11.18;;;5.40;;
75932;SDS011;64803;52.356;5.310;2023-05-07T14:35:38;12.55;;;6.50;;
75932;SDS011;64803;52.356;5.310;2023-05-07T14:38:04;12.15;;;5.93;;
75932;SDS011;64803;52.356;5.310;2023-05-07T14:40:30;12.30;;;5.78;;
75932;SDS011;64803;52.356;5.310;2023-05-07T14:42:56;14.93;;;5.47;;
75932;SDS011;64803;52.356;5.310;2023-05-07T14:45:23;10.90;;;5.43;;
75932;SDS011;64803;52.356;5.310;2023-05-07T14:47:49;10.40;;;4.90;;
75932;SDS011;64803;52.356;5.310;2023-05-07T14:50:15;10.93;;;4.80;;
75932;SDS011;64803;52.356;5.310;2023-05-07T14:52:41;9.70;;;5.07;;
75932;SDS011;64803;52.356;5.310;2023-05-07T14:55:07;12.23;;;4.70;;
75932;SDS011;64803;52.356;5.310;2023-05-07T14:57:34;11.85;;;4.30;;
75932;SDS011;64803;52.356;5.310;2023-05-07T15:00:01;8.68;;;4.43;;
75932;SDS011;64803;52.356;5.310;2023-05-07T15:02:30;9.38;;;4.32;;
75932;SDS011;64803;52.356;5.310;2023-05-07T15:04:56;11.30;;;5.13;;
75932;SDS011;64803;52.356;5.310;2023-05-07T15:07:22;12.15;;;6.10;;
75932;SDS011;64803;52.356;5.310;2023-05-07T15:09:48;14.30;;;6.20;;
75932;SDS011;64803;52.356;5.310;2023-05-07T15:12:14;12.50;;;5.85;;
75932;SDS011;64803;52.356;5.310;2023-05-07T15:14:40;12.10;;;6.05;;
75932;SDS011;64803;52.356;5.310;2023-05-07T15:17:06;11.90;;;4.53;;
75932;SDS011;64803;52.356;5.310;2023-05-07T15:19:33;15.00;;;5.03;;